sensor_id;sensor_type;location;lat;lon;timestamp;P1;durP1;ratioP1;P2;durP2;ratioP2
68192;SDS011;55012;47.562;18.414;2023-03-22T00:00:23;113.93;;;43.03;;
68192;SDS011;55012;47.562;18.414;2023-03-22T00:02:54;121.22;;;47.80;;
68192;SDS011;55012;47.562;18.414;2023-03-22T00:05:20;117.25;;;48.75;;
68192;SDS011;55012;47.562;18.414;2023-03-22T00:07:46;103.68;;;44.45;;
68192;SDS011;55012;47.562;18.414;2023-03-22T00:10:14;71.75;;;31.90;;
68192;SDS011;55012;47.562;18.414;2023-03-22T00:12:40;58.60;;;26.52;;
68192;SDS011;55012;47.562;18.414;2023-03-22T00:15:06;58.22;;;27.50;;
68192;SDS011;55012;47.562;18.414;2023-03-22T00:17:33;62.70;;;25.85;;
68192;SDS011;55012;47.562;18.414;2023-03-22T00:20:01;52.55;;;23.33;;
68192;SDS011;55012;47.562;18.414;2023-03-22T00:22:30;58.55;;;25.05;;
68192;SDS011;55012;47.562;18.414;2023-03-22T00:24:56;63.10;;;26.52;;
68192;SDS011;55012;47.562;18.414;2023-03-22T00:27:22;67.68;;;25.40;;
68192;SDS011;55012;47.562;18.414;2023-03-22T00:29:47;49.47;;;21.30;;
68192;SDS011;55012;47.562;18.414;2023-03-22T00:32:13;48.92;;;20.08;;
68192;SDS011;55012;47.562;18.414;2023-03-22T00:34:38;52.90;;;19.83;;
68192;SDS011;55012;47.562;18.414;2023-03-22T00:37:03;49.53;;;20.40;;
68192;SDS011;55012;47.562;18.414;2023-03-22T00:39:29;55.13;;;21.23;;
68192;SDS011;55012;47.562;18.414;2023-03-22T00:41:54;46.95;;;19.88;;
68192;SDS011;55012;47.562;18.414;2023-03-22T00:44:20;52.70;;;20.05;;
68192;SDS011;55012;47.562;18.414;2023-03-22T00:46:45;42.63;;;19.15;;
68192;SDS011;55012;47.562;18.414;2023-03-22T00:49:11;45.35;;;19.05;;
68192;SDS011;55012;47.562;18.414;2023-03-22T00:51:36;48.58;;;19.58;;
68192;SDS011;55012;47.562;18.414;2023-03-22T00:54:02;48.70;;;20.80;;
68192;SDS011;55012;47.562;18.414;2023-03-22T00:56:27;40.83;;;18.73;;
68192;SDS011;55012;47.562;18.414;2023-03-22T00:58:53;49.60;;;20.38;;
68192;SDS011;55012;47.562;18.414;2023-03-22T01:01:19;53.13;;;21.23;;
68192;SDS011;55012;47.562;18.414;2023-03-22T01:03:44;47.97;;;21.15;;
68192;SDS011;55012;47.562;18.414;2023-03-22T01:06:14;47.20;;;20.65;;
68192;SDS011;55012;47.562;18.414;2023-03-22T01:08:39;53.17;;;22.08;;
68192;SDS011;55012;47.562;18.414;2023-03-22T01:11:06;88.15;;;37.75;;
68192;SDS011;55012;47.562;18.414;2023-03-22T01:13:32;70.40;;;29.52;;
68192;SDS011;55012;47.562;18.414;2023-03-22T01:15:58;55.38;;;23.25;;
68192;SDS011;55012;47.562;18.414;2023-03-22T01:18:24;52.35;;;23.00;;
68192;SDS011;55012;47.562;18.414;2023-03-22T01:20:50;64.97;;;23.40;;
68192;SDS011;55012;47.562;18.414;2023-03-22T01:23:15;48.00;;;20.60;;
68192;SDS011;55012;47.562;18.414;2023-03-22T01:25:41;50.22;;;19.52;;
68192;SDS011;55012;47.562;18.414;2023-03-22T01:28:06;48.20;;;17.52;;
68192;SDS011;55012;47.562;18.414;2023-03-22T01:30:32;39.63;;;16.10;;
68192;SDS011;55012;47.562;18.414;2023-03-22T01:32:58;35.13;;;14.73;;
68192;SDS011;55012;47.562;18.414;2023-03-22T01:35:24;35.67;;;14.57;;
68192;SDS011;55012;47.562;18.414;2023-03-22T01:37:49;26.85;;;12.93;;
68192;SDS011;55012;47.562;18.414;2023-03-22T01:40:16;33.88;;;13.38;;
68192;SDS011;55012;47.562;18.414;2023-03-22T01:42:41;31.92;;;13.88;;
68192;SDS011;55012;47.562;18.414;2023-03-22T01:45:26;28.85;;;13.82;;
68192;SDS011;55012;47.562;18.414;2023-03-22T01:48:04;30.10;;;12.82;;
68192;SDS011;55012;47.562;18.414;2023-03-22T01:50:34;26.75;;;12.73;;
68192;SDS011;55012;47.562;18.414;2023-03-22T01:53:01;24.10;;;10.85;;
68192;SDS011;55012;47.562;18.414;2023-03-22T01:55:29;29.77;;;13.25;;
68192;SDS011;55012;47.562;18.414;2023-03-22T01:57:57;35.60;;;16.17;;
68192;SDS011;55012;47.562;18.414;2023-03-22T02:00:24;35.45;;;14.82;;
68192;SDS011;55012;47.562;18.414;2023-03-22T02:02:50;52.28;;;19.23;;
68192;SDS011;55012;47.562;18.414;2023-03-22T02:05:17;50.63;;;18.50;;
68192;SDS011;55012;47.562;18.414;2023-03-22T02:07:43;51.67;;;17.85;;
68192;SDS011;55012;47.562;18.414;2023-03-22T02:10:11;54.40;;;17.70;;
68192;SDS011;55012;47.562;18.414;2023-03-22T02:15:39;51.97;;;19.17;;
68192;SDS011;55012;47.562;18.414;2023-03-22T02:18:18;38.50;;;17.27;;
68192;SDS011;55012;47.562;18.414;2023-03-22T02:23:57;39.08;;;16.80;;
68192;SDS011;55012;47.562;18.414;2023-03-22T02:29:44;26.20;;;12.85;;
68192;SDS011;55012;47.562;18.414;2023-03-22T02:40:31;32.45;;;15.82;;
68192;SDS011;55012;47.562;18.414;2023-03-22T02:46:29;22.63;;;11.60;;
68192;SDS011;55012;47.562;18.414;2023-03-22T02:51:45;25.05;;;13.35;;
68192;SDS011;55012;47.562;18.414;2023-03-22T02:54:21;38.22;;;17.33;;
68192;SDS011;55012;47.562;18.414;2023-03-22T02:57:04;29.42;;;13.52;;
68192;SDS011;55012;47.562;18.414;2023-03-22T02:59:39;28.60;;;12.48;;
68192;SDS011;55012;47.562;18.414;2023-03-22T03:02:08;25.08;;;12.60;;
68192;SDS011;55012;47.562;18.414;2023-03-22T03:04:42;27.17;;;14.52;;
68192;SDS011;55012;47.562;18.414;2023-03-22T03:07:11;28.77;;;14.80;;
68192;SDS011;55012;47.562;18.414;2023-03-22T03:09:41;28.95;;;13.63;;
68192;SDS011;55012;47.562;18.414;2023-03-22T03:12:08;29.77;;;12.82;;
68192;SDS011;55012;47.562;18.414;2023-03-22T03:14:48;28.58;;;13.75;;
68192;SDS011;55012;47.562;18.414;2023-03-22T03:28:35;35.72;;;15.95;;
68192;SDS011;55012;47.562;18.414;2023-03-22T03:33:35;33.83;;;15.45;;
68192;SDS011;55012;47.562;18.414;2023-03-22T03:36:09;36.67;;;18.20;;
68192;SDS011;55012;47.562;18.414;2023-03-22T03:38:40;36.28;;;16.17;;
68192;SDS011;55012;47.562;18.414;2023-03-22T03:41:12;36.35;;;16.17;;
68192;SDS011;55012;47.562;18.414;2023-03-22T03:43:41;38.63;;;17.10;;
68192;SDS011;55012;47.562;18.414;2023-03-22T03:46:09;36.55;;;16.58;;
68192;SDS011;55012;47.562;18.414;2023-03-22T03:48:36;35.53;;;16.63;;
68192;SDS011;55012;47.562;18.414;2023-03-22T03:51:05;35.25;;;16.67;;
68192;SDS011;55012;47.562;18.414;2023-03-22T03:53:31;30.40;;;14.88;;
68192;SDS011;55012;47.562;18.414;2023-03-22T03:55:56;30.88;;;15.40;;
68192;SDS011;55012;47.562;18.414;2023-03-22T03:58:22;32.55;;;16.48;;
68192;SDS011;55012;47.562;18.414;2023-03-22T04:00:48;33.22;;;15.88;;
68192;SDS011;55012;47.562;18.414;2023-03-22T04:03:14;34.95;;;15.82;;
68192;SDS011;55012;47.562;18.414;2023-03-22T04:05:39;31.77;;;16.27;;
68192;SDS011;55012;47.562;18.414;2023-03-22T04:08:05;32.35;;;15.50;;
68192;SDS011;55012;47.562;18.414;2023-03-22T04:10:31;27.15;;;13.88;;
68192;SDS011;55012;47.562;18.414;2023-03-22T04:12:56;27.73;;;12.85;;
68192;SDS011;55012;47.562;18.414;2023-03-22T04:15:22;28.77;;;13.10;;
68192;SDS011;55012;47.562;18.414;2023-03-22T04:17:48;27.33;;;11.88;;
68192;SDS011;55012;47.562;18.414;2023-03-22T04:20:15;25.02;;;11.77;;
68192;SDS011;55012;47.562;18.414;2023-03-22T04:22:41;22.58;;;11.15;;
68192;SDS011;55012;47.562;18.414;2023-03-22T04:25:08;21.17;;;10.77;;
68192;SDS011;55012;47.562;18.414;2023-03-22T04:27:36;24.63;;;11.15;;
68192;SDS011;55012;47.562;18.414;2023-03-22T04:30:06;19.75;;;10.48;;
68192;SDS011;55012;47.562;18.414;2023-03-22T04:32:36;21.88;;;10.65;;
68192;SDS011;55012;47.562;18.414;2023-03-22T04:35:02;23.50;;;11.18;;
68192;SDS011;55012;47.562;18.414;2023-03-22T04:37:28;21.17;;;10.57;;
68192;SDS011;55012;47.562;18.414;2023-03-22T04:39:57;29.42;;;11.13;;
68192;SDS011;55012;47.562;18.414;2023-03-22T04:42:23;32.53;;;10.32;;
68192;SDS011;55012;47.562;18.414;2023-03-22T04:44:50;28.40;;;10.60;;
68192;SDS011;55012;47.562;18.414;2023-03-22T04:47:15;26.77;;;10.20;;
68192;SDS011;55012;47.562;18.414;2023-03-22T04:49:42;31.33;;;12.68;;
68192;SDS011;55012;47.562;18.414;2023-03-22T04:52:08;46.92;;;16.85;;
68192;SDS011;55012;47.562;18.414;2023-03-22T04:54:34;77.13;;;24.05;;
68192;SDS011;55012;47.562;18.414;2023-03-22T04:57:00;71.60;;;22.40;;
68192;SDS011;55012;47.562;18.414;2023-03-22T04:59:25;40.92;;;15.80;;
68192;SDS011;55012;47.562;18.414;2023-03-22T05:01:51;33.38;;;13.95;;
68192;SDS011;55012;47.562;18.414;2023-03-22T05:04:17;26.35;;;12.60;;
68192;SDS011;55012;47.562;18.414;2023-03-22T05:06:44;30.52;;;13.05;;
68192;SDS011;55012;47.562;18.414;2023-03-22T05:09:10;36.90;;;15.27;;
68192;SDS011;55012;47.562;18.414;2023-03-22T05:11:36;37.70;;;15.90;;
68192;SDS011;55012;47.562;18.414;2023-03-22T05:14:02;32.17;;;15.23;;
68192;SDS011;55012;47.562;18.414;2023-03-22T05:16:28;31.05;;;14.35;;
68192;SDS011;55012;47.562;18.414;2023-03-22T05:18:54;29.25;;;14.20;;
68192;SDS011;55012;47.562;18.414;2023-03-22T05:21:21;22.08;;;11.05;;
68192;SDS011;55012;47.562;18.414;2023-03-22T05:23:52;25.50;;;11.38;;
68192;SDS011;55012;47.562;18.414;2023-03-22T05:26:22;21.17;;;10.70;;
68192;SDS011;55012;47.562;18.414;2023-03-22T05:28:50;24.90;;;10.85;;
68192;SDS011;55012;47.562;18.414;2023-03-22T05:31:17;21.60;;;10.65;;
68192;SDS011;55012;47.562;18.414;2023-03-22T05:33:45;18.70;;;9.27;;
68192;SDS011;55012;47.562;18.414;2023-03-22T05:36:15;20.33;;;9.25;;
68192;SDS011;55012;47.562;18.414;2023-03-22T05:38:42;20.55;;;9.70;;
68192;SDS011;55012;47.562;18.414;2023-03-22T05:41:08;20.33;;;8.98;;
68192;SDS011;55012;47.562;18.414;2023-03-22T05:43:34;21.75;;;9.73;;
68192;SDS011;55012;47.562;18.414;2023-03-22T05:46:03;19.77;;;10.13;;
68192;SDS011;55012;47.562;18.414;2023-03-22T05:48:29;21.08;;;10.77;;
68192;SDS011;55012;47.562;18.414;2023-03-22T05:50:55;20.05;;;10.43;;
68192;SDS011;55012;47.562;18.414;2023-03-22T05:53:20;21.33;;;10.10;;
68192;SDS011;55012;47.562;18.414;2023-03-22T05:55:46;22.23;;;10.57;;
68192;SDS011;55012;47.562;18.414;2023-03-22T05:58:11;25.30;;;11.52;;
68192;SDS011;55012;47.562;18.414;2023-03-22T06:00:37;22.60;;;11.38;;
68192;SDS011;55012;47.562;18.414;2023-03-22T06:03:02;21.27;;;11.10;;
68192;SDS011;55012;47.562;18.414;2023-03-22T06:05:29;23.60;;;10.75;;
68192;SDS011;55012;47.562;18.414;2023-03-22T06:07:56;18.58;;;9.88;;
68192;SDS011;55012;47.562;18.414;2023-03-22T06:10:22;20.17;;;10.52;;
68192;SDS011;55012;47.562;18.414;2023-03-22T06:12:48;21.17;;;10.32;;
68192;SDS011;55012;47.562;18.414;2023-03-22T06:15:14;20.20;;;10.32;;
68192;SDS011;55012;47.562;18.414;2023-03-22T06:17:40;17.38;;;9.45;;
68192;SDS011;55012;47.562;18.414;2023-03-22T06:20:07;20.13;;;9.80;;
68192;SDS011;55012;47.562;18.414;2023-03-22T06:22:35;18.75;;;9.10;;
68192;SDS011;55012;47.562;18.414;2023-03-22T06:25:01;18.00;;;9.25;;
68192;SDS011;55012;47.562;18.414;2023-03-22T06:27:27;19.20;;;9.63;;
68192;SDS011;55012;47.562;18.414;2023-03-22T06:29:53;19.95;;;9.93;;
68192;SDS011;55012;47.562;18.414;2023-03-22T06:32:19;20.17;;;10.68;;
68192;SDS011;55012;47.562;18.414;2023-03-22T06:34:48;28.15;;;12.77;;
68192;SDS011;55012;47.562;18.414;2023-03-22T06:37:14;27.95;;;13.75;;
68192;SDS011;55012;47.562;18.414;2023-03-22T06:39:40;27.38;;;14.65;;
68192;SDS011;55012;47.562;18.414;2023-03-22T06:42:06;29.70;;;16.60;;
68192;SDS011;55012;47.562;18.414;2023-03-22T06:44:31;30.95;;;15.95;;
68192;SDS011;55012;47.562;18.414;2023-03-22T06:46:57;33.33;;;16.02;;
68192;SDS011;55012;47.562;18.414;2023-03-22T06:49:22;31.45;;;15.63;;
68192;SDS011;55012;47.562;18.414;2023-03-22T06:51:48;28.00;;;15.65;;
68192;SDS011;55012;47.562;18.414;2023-03-22T06:54:13;26.02;;;13.35;;
68192;SDS011;55012;47.562;18.414;2023-03-22T06:56:40;32.05;;;15.57;;
68192;SDS011;55012;47.562;18.414;2023-03-22T06:59:06;31.90;;;14.45;;
68192;SDS011;55012;47.562;18.414;2023-03-22T07:01:32;24.13;;;12.23;;
68192;SDS011;55012;47.562;18.414;2023-03-22T07:03:57;27.33;;;11.50;;
68192;SDS011;55012;47.562;18.414;2023-03-22T07:06:23;23.77;;;11.05;;
68192;SDS011;55012;47.562;18.414;2023-03-22T07:08:49;26.10;;;12.07;;
68192;SDS011;55012;47.562;18.414;2023-03-22T07:11:15;21.73;;;10.73;;
68192;SDS011;55012;47.562;18.414;2023-03-22T07:13:40;25.73;;;11.63;;
68192;SDS011;55012;47.562;18.414;2023-03-22T07:16:06;22.05;;;11.23;;
68192;SDS011;55012;47.562;18.414;2023-03-22T07:18:32;22.73;;;10.85;;
68192;SDS011;55012;47.562;18.414;2023-03-22T07:20:57;21.23;;;10.52;;
68192;SDS011;55012;47.562;18.414;2023-03-22T07:23:23;20.67;;;11.38;;
68192;SDS011;55012;47.562;18.414;2023-03-22T07:25:48;21.02;;;11.20;;
68192;SDS011;55012;47.562;18.414;2023-03-22T07:28:15;21.60;;;11.60;;
68192;SDS011;55012;47.562;18.414;2023-03-22T07:30:41;25.45;;;12.50;;
68192;SDS011;55012;47.562;18.414;2023-03-22T07:33:07;27.02;;;13.82;;
68192;SDS011;55012;47.562;18.414;2023-03-22T07:35:34;31.00;;;16.27;;
68192;SDS011;55012;47.562;18.414;2023-03-22T07:38:00;31.48;;;16.05;;
68192;SDS011;55012;47.562;18.414;2023-03-22T07:40:27;31.17;;;15.43;;
68192;SDS011;55012;47.562;18.414;2023-03-22T07:42:52;31.92;;;16.25;;
68192;SDS011;55012;47.562;18.414;2023-03-22T07:45:18;32.08;;;15.23;;
68192;SDS011;55012;47.562;18.414;2023-03-22T07:47:45;23.13;;;12.93;;
68192;SDS011;55012;47.562;18.414;2023-03-22T07:50:11;21.50;;;11.52;;
68192;SDS011;55012;47.562;18.414;2023-03-22T07:52:38;19.10;;;10.68;;
68192;SDS011;55012;47.562;18.414;2023-03-22T07:55:04;21.33;;;11.20;;
68192;SDS011;55012;47.562;18.414;2023-03-22T07:57:30;24.38;;;11.90;;
68192;SDS011;55012;47.562;18.414;2023-03-22T07:59:56;20.98;;;12.38;;
68192;SDS011;55012;47.562;18.414;2023-03-22T08:02:21;26.98;;;14.48;;
68192;SDS011;55012;47.562;18.414;2023-03-22T08:04:47;28.15;;;15.80;;
68192;SDS011;55012;47.562;18.414;2023-03-22T08:07:14;28.52;;;15.48;;
68192;SDS011;55012;47.562;18.414;2023-03-22T08:09:42;25.45;;;13.48;;
68192;SDS011;55012;47.562;18.414;2023-03-22T08:12:08;32.35;;;17.45;;
68192;SDS011;55012;47.562;18.414;2023-03-22T08:14:34;31.02;;;16.63;;
68192;SDS011;55012;47.562;18.414;2023-03-22T08:17:01;27.85;;;15.30;;
68192;SDS011;55012;47.562;18.414;2023-03-22T08:19:27;24.98;;;12.40;;
68192;SDS011;55012;47.562;18.414;2023-03-22T08:21:53;18.95;;;10.50;;
68192;SDS011;55012;47.562;18.414;2023-03-22T08:24:18;22.27;;;9.88;;
68192;SDS011;55012;47.562;18.414;2023-03-22T08:26:44;17.30;;;9.77;;
68192;SDS011;55012;47.562;18.414;2023-03-22T08:29:10;18.60;;;9.38;;
68192;SDS011;55012;47.562;18.414;2023-03-22T08:31:35;16.85;;;9.60;;
68192;SDS011;55012;47.562;18.414;2023-03-22T08:34:01;18.90;;;10.57;;
68192;SDS011;55012;47.562;18.414;2023-03-22T08:36:26;18.42;;;10.48;;
68192;SDS011;55012;47.562;18.414;2023-03-22T08:38:53;17.38;;;9.68;;
68192;SDS011;55012;47.562;18.414;2023-03-22T08:41:19;22.02;;;11.40;;
68192;SDS011;55012;47.562;18.414;2023-03-22T08:43:44;26.88;;;12.75;;
68192;SDS011;55012;47.562;18.414;2023-03-22T08:46:10;24.58;;;12.15;;
68192;SDS011;55012;47.562;18.414;2023-03-22T08:48:35;24.52;;;12.30;;
68192;SDS011;55012;47.562;18.414;2023-03-22T08:51:02;21.27;;;10.75;;
68192;SDS011;55012;47.562;18.414;2023-03-22T08:53:29;18.40;;;9.60;;
68192;SDS011;55012;47.562;18.414;2023-03-22T08:55:54;14.77;;;8.95;;
68192;SDS011;55012;47.562;18.414;2023-03-22T08:58:22;15.57;;;9.05;;
68192;SDS011;55012;47.562;18.414;2023-03-22T09:00:48;14.45;;;8.65;;
68192;SDS011;55012;47.562;18.414;2023-03-22T09:03:14;15.05;;;8.70;;
68192;SDS011;55012;47.562;18.414;2023-03-22T09:05:40;14.63;;;8.55;;
68192;SDS011;55012;47.562;18.414;2023-03-22T09:08:05;18.23;;;8.93;;
68192;SDS011;55012;47.562;18.414;2023-03-22T09:10:31;18.25;;;10.07;;
68192;SDS011;55012;47.562;18.414;2023-03-22T09:12:57;17.17;;;9.48;;
68192;SDS011;55012;47.562;18.414;2023-03-22T09:15:22;16.65;;;9.02;;
68192;SDS011;55012;47.562;18.414;2023-03-22T09:17:48;16.80;;;10.15;;
68192;SDS011;55012;47.562;18.414;2023-03-22T09:20:14;17.80;;;10.40;;
68192;SDS011;55012;47.562;18.414;2023-03-22T09:22:39;19.88;;;12.05;;
68192;SDS011;55012;47.562;18.414;2023-03-22T09:25:06;22.38;;;12.45;;
68192;SDS011;55012;47.562;18.414;2023-03-22T09:27:32;21.92;;;11.65;;
68192;SDS011;55012;47.562;18.414;2023-03-22T09:29:58;17.13;;;10.23;;
68192;SDS011;55012;47.562;18.414;2023-03-22T09:32:24;18.25;;;10.20;;
68192;SDS011;55012;47.562;18.414;2023-03-22T09:34:50;16.92;;;9.57;;
68192;SDS011;55012;47.562;18.414;2023-03-22T09:37:16;15.80;;;10.13;;
68192;SDS011;55012;47.562;18.414;2023-03-22T09:39:43;20.10;;;9.85;;
68192;SDS011;55012;47.562;18.414;2023-03-22T09:42:18;12.82;;;8.73;;
68192;SDS011;55012;47.562;18.414;2023-03-22T09:44:50;14.77;;;9.15;;
68192;SDS011;55012;47.562;18.414;2023-03-22T09:47:26;15.65;;;9.02;;
68192;SDS011;55012;47.562;18.414;2023-03-22T09:50:00;17.55;;;10.60;;
68192;SDS011;55012;47.562;18.414;2023-03-22T09:52:30;17.23;;;10.05;;
68192;SDS011;55012;47.562;18.414;2023-03-22T09:54:58;18.65;;;10.00;;
68192;SDS011;55012;47.562;18.414;2023-03-22T10:02:42;28.75;;;15.73;;
68192;SDS011;55012;47.562;18.414;2023-03-22T10:07:56;18.65;;;11.32;;
68192;SDS011;55012;47.562;18.414;2023-03-22T10:10:25;15.93;;;9.90;;
68192;SDS011;55012;47.562;18.414;2023-03-22T10:18:33;18.45;;;11.18;;
68192;SDS011;55012;47.562;18.414;2023-03-22T10:21:08;17.52;;;10.93;;
68192;SDS011;55012;47.562;18.414;2023-03-22T10:26:29;15.10;;;9.38;;
68192;SDS011;55012;47.562;18.414;2023-03-22T10:29:00;16.95;;;10.50;;
68192;SDS011;55012;47.562;18.414;2023-03-22T10:31:28;15.27;;;9.57;;
68192;SDS011;55012;47.562;18.414;2023-03-22T10:36:30;16.33;;;9.60;;
68192;SDS011;55012;47.562;18.414;2023-03-22T10:39:03;15.55;;;10.02;;
68192;SDS011;55012;47.562;18.414;2023-03-22T10:41:37;18.40;;;9.68;;
68192;SDS011;55012;47.562;18.414;2023-03-22T10:44:03;18.02;;;10.98;;
68192;SDS011;55012;47.562;18.414;2023-03-22T10:46:32;19.75;;;11.63;;
68192;SDS011;55012;47.562;18.414;2023-03-22T10:49:02;22.30;;;11.88;;
68192;SDS011;55012;47.562;18.414;2023-03-22T10:51:48;19.40;;;11.80;;
68192;SDS011;55012;47.562;18.414;2023-03-22T10:54:16;20.27;;;11.55;;
68192;SDS011;55012;47.562;18.414;2023-03-22T10:56:45;18.67;;;10.30;;
68192;SDS011;55012;47.562;18.414;2023-03-22T11:04:54;14.40;;;8.95;;
68192;SDS011;55012;47.562;18.414;2023-03-22T11:07:29;15.52;;;9.32;;
68192;SDS011;55012;47.562;18.414;2023-03-22T11:12:45;15.32;;;8.63;;
68192;SDS011;55012;47.562;18.414;2023-03-22T11:15:33;16.33;;;8.85;;
68192;SDS011;55012;47.562;18.414;2023-03-22T11:18:04;14.30;;;8.95;;
68192;SDS011;55012;47.562;18.414;2023-03-22T11:20:32;13.20;;;7.97;;
68192;SDS011;55012;47.562;18.414;2023-03-22T11:22:59;13.30;;;9.10;;
68192;SDS011;55012;47.562;18.414;2023-03-22T11:25:30;15.60;;;9.20;;
68192;SDS011;55012;47.562;18.414;2023-03-22T11:30:41;15.70;;;8.98;;
68192;SDS011;55012;47.562;18.414;2023-03-22T11:33:32;17.73;;;8.75;;
68192;SDS011;55012;47.562;18.414;2023-03-22T11:35:59;14.05;;;8.68;;
68192;SDS011;55012;47.562;18.414;2023-03-22T11:38:28;15.38;;;9.25;;
68192;SDS011;55012;47.562;18.414;2023-03-22T11:41:02;16.05;;;9.23;;
68192;SDS011;55012;47.562;18.414;2023-03-22T11:43:45;22.57;;;11.43;;
68192;SDS011;55012;47.562;18.414;2023-03-22T11:46:14;17.40;;;8.75;;
68192;SDS011;55012;47.562;18.414;2023-03-22T11:48:43;17.35;;;8.90;;
68192;SDS011;55012;47.562;18.414;2023-03-22T11:51:12;15.05;;;9.48;;
68192;SDS011;55012;47.562;18.414;2023-03-22T11:53:44;18.10;;;8.73;;
68192;SDS011;55012;47.562;18.414;2023-03-22T11:56:14;18.65;;;9.95;;
68192;SDS011;55012;47.562;18.414;2023-03-22T11:58:44;13.43;;;8.43;;
68192;SDS011;55012;47.562;18.414;2023-03-22T12:01:23;15.88;;;8.50;;
68192;SDS011;55012;47.562;18.414;2023-03-22T12:03:57;22.80;;;9.38;;
68192;SDS011;55012;47.562;18.414;2023-03-22T12:06:31;15.18;;;8.35;;
68192;SDS011;55012;47.562;18.414;2023-03-22T12:09:04;20.65;;;7.97;;
68192;SDS011;55012;47.562;18.414;2023-03-22T12:11:40;13.90;;;7.65;;
68192;SDS011;55012;47.562;18.414;2023-03-22T12:14:13;12.13;;;7.40;;
68192;SDS011;55012;47.562;18.414;2023-03-22T12:19:33;11.20;;;6.88;;
68192;SDS011;55012;47.562;18.414;2023-03-22T12:22:17;14.30;;;6.60;;
68192;SDS011;55012;47.562;18.414;2023-03-22T12:24:46;10.93;;;6.40;;
68192;SDS011;55012;47.562;18.414;2023-03-22T12:27:32;15.63;;;6.43;;
68192;SDS011;55012;47.562;18.414;2023-03-22T12:30:15;13.65;;;6.43;;
68192;SDS011;55012;47.562;18.414;2023-03-22T12:33:23;16.52;;;7.60;;
68192;SDS011;55012;47.562;18.414;2023-03-22T12:36:15;19.45;;;8.32;;
68192;SDS011;55012;47.562;18.414;2023-03-22T12:38:50;14.20;;;7.35;;
68192;SDS011;55012;47.562;18.414;2023-03-22T12:41:29;19.13;;;8.40;;
68192;SDS011;55012;47.562;18.414;2023-03-22T12:44:00;20.02;;;7.25;;
68192;SDS011;55012;47.562;18.414;2023-03-22T12:46:34;16.38;;;9.00;;
68192;SDS011;55012;47.562;18.414;2023-03-22T12:51:52;5.13;;;3.08;;
68192;SDS011;55012;47.562;18.414;2023-03-22T12:54:22;5.70;;;4.00;;
68192;SDS011;55012;47.562;18.414;2023-03-22T12:56:49;10.48;;;5.57;;
68192;SDS011;55012;47.562;18.414;2023-03-22T12:59:19;10.68;;;4.70;;
68192;SDS011;55012;47.562;18.414;2023-03-22T13:01:58;7.35;;;4.07;;
68192;SDS011;55012;47.562;18.414;2023-03-22T13:07:09;4.85;;;3.35;;
68192;SDS011;55012;47.562;18.414;2023-03-22T13:09:47;4.00;;;2.88;;
68192;SDS011;55012;47.562;18.414;2023-03-22T13:22:29;4.80;;;3.30;;
68192;SDS011;55012;47.562;18.414;2023-03-22T13:38:13;5.20;;;3.35;;
68192;SDS011;55012;47.562;18.414;2023-03-22T13:54:22;6.07;;;3.33;;
68192;SDS011;55012;47.562;18.414;2023-03-22T13:56:56;4.80;;;3.33;;
68192;SDS011;55012;47.562;18.414;2023-03-22T14:04:41;5.68;;;3.83;;
68192;SDS011;55012;47.562;18.414;2023-03-22T14:07:17;6.43;;;3.70;;
68192;SDS011;55012;47.562;18.414;2023-03-22T14:09:49;3.90;;;2.88;;
68192;SDS011;55012;47.562;18.414;2023-03-22T14:12:20;5.97;;;3.28;;
68192;SDS011;55012;47.562;18.414;2023-03-22T14:14:55;5.30;;;3.40;;
68192;SDS011;55012;47.562;18.414;2023-03-22T14:17:32;5.38;;;3.28;;
68192;SDS011;55012;47.562;18.414;2023-03-22T14:20:03;5.70;;;3.47;;
68192;SDS011;55012;47.562;18.414;2023-03-22T14:22:36;5.18;;;3.47;;
68192;SDS011;55012;47.562;18.414;2023-03-22T14:25:05;4.18;;;3.25;;
68192;SDS011;55012;47.562;18.414;2023-03-22T14:27:33;5.60;;;3.45;;
68192;SDS011;55012;47.562;18.414;2023-03-22T14:30:00;5.00;;;3.70;;
68192;SDS011;55012;47.562;18.414;2023-03-22T14:32:26;7.28;;;4.05;;
68192;SDS011;55012;47.562;18.414;2023-03-22T14:35:16;4.53;;;3.83;;
68192;SDS011;55012;47.562;18.414;2023-03-22T14:37:45;5.50;;;3.92;;
68192;SDS011;55012;47.562;18.414;2023-03-22T14:40:15;7.30;;;4.93;;
68192;SDS011;55012;47.562;18.414;2023-03-22T14:42:52;5.82;;;4.50;;
68192;SDS011;55012;47.562;18.414;2023-03-22T14:45:19;5.30;;;4.00;;
68192;SDS011;55012;47.562;18.414;2023-03-22T14:47:47;6.45;;;4.15;;
68192;SDS011;55012;47.562;18.414;2023-03-22T14:50:14;5.85;;;4.45;;
68192;SDS011;55012;47.562;18.414;2023-03-22T14:52:42;5.20;;;4.30;;
68192;SDS011;55012;47.562;18.414;2023-03-22T14:55:16;8.05;;;4.15;;
68192;SDS011;55012;47.562;18.414;2023-03-22T14:57:48;6.90;;;4.30;;
68192;SDS011;55012;47.562;18.414;2023-03-22T15:00:24;8.45;;;4.80;;
68192;SDS011;55012;47.562;18.414;2023-03-22T15:02:55;6.10;;;4.68;;
68192;SDS011;55012;47.562;18.414;2023-03-22T15:05:25;7.35;;;4.70;;
68192;SDS011;55012;47.562;18.414;2023-03-22T15:08:11;9.10;;;5.03;;
68192;SDS011;55012;47.562;18.414;2023-03-22T15:11:01;6.63;;;4.20;;
68192;SDS011;55012;47.562;18.414;2023-03-22T15:13:33;7.30;;;4.47;;
68192;SDS011;55012;47.562;18.414;2023-03-22T15:16:02;6.00;;;4.10;;
68192;SDS011;55012;47.562;18.414;2023-03-22T15:18:30;6.30;;;4.00;;
68192;SDS011;55012;47.562;18.414;2023-03-22T15:20:57;6.40;;;4.47;;
68192;SDS011;55012;47.562;18.414;2023-03-22T15:23:35;7.55;;;4.75;;
68192;SDS011;55012;47.562;18.414;2023-03-22T15:29:01;17.23;;;12.13;;
68192;SDS011;55012;47.562;18.414;2023-03-22T15:31:32;6.55;;;4.28;;
68192;SDS011;55012;47.562;18.414;2023-03-22T15:34:13;7.22;;;4.25;;
68192;SDS011;55012;47.562;18.414;2023-03-22T15:36:44;5.03;;;3.63;;
68192;SDS011;55012;47.562;18.414;2023-03-22T15:39:18;5.88;;;3.70;;
68192;SDS011;55012;47.562;18.414;2023-03-22T15:41:51;8.50;;;4.05;;
68192;SDS011;55012;47.562;18.414;2023-03-22T15:44:37;4.75;;;3.92;;
68192;SDS011;55012;47.562;18.414;2023-03-22T15:49:35;5.32;;;2.70;;
68192;SDS011;55012;47.562;18.414;2023-03-22T15:52:36;7.82;;;2.40;;
68192;SDS011;55012;47.562;18.414;2023-03-22T15:55:04;4.30;;;2.60;;
68192;SDS011;55012;47.562;18.414;2023-03-22T15:57:48;3.42;;;2.70;;
68192;SDS011;55012;47.562;18.414;2023-03-22T16:00:20;3.92;;;2.50;;
68192;SDS011;55012;47.562;18.414;2023-03-22T16:05:38;5.00;;;3.10;;
68192;SDS011;55012;47.562;18.414;2023-03-22T16:08:08;6.73;;;4.23;;
68192;SDS011;55012;47.562;18.414;2023-03-22T16:10:36;8.25;;;5.72;;
68192;SDS011;55012;47.562;18.414;2023-03-22T16:13:17;3.42;;;2.63;;
68192;SDS011;55012;47.562;18.414;2023-03-22T16:15:44;6.10;;;3.20;;
68192;SDS011;55012;47.562;18.414;2023-03-22T16:18:19;5.68;;;3.17;;
68192;SDS011;55012;47.562;18.414;2023-03-22T16:20:47;5.03;;;2.53;;
68192;SDS011;55012;47.562;18.414;2023-03-22T16:23:14;4.68;;;3.13;;
68192;SDS011;55012;47.562;18.414;2023-03-22T16:25:42;5.85;;;3.10;;
68192;SDS011;55012;47.562;18.414;2023-03-22T16:28:08;4.65;;;2.63;;
68192;SDS011;55012;47.562;18.414;2023-03-22T16:30:36;5.97;;;3.10;;
68192;SDS011;55012;47.562;18.414;2023-03-22T16:33:03;5.32;;;3.00;;